createdAt,value
2023-05-14T00:01:31.564Z,6.57
2023-05-14T00:03:58.450Z,6.10
2023-05-14T00:06:25.423Z,11.48
2023-05-14T00:08:52.052Z,6.13
2023-05-14T00:11:18.820Z,6.93
2023-05-14T00:13:45.463Z,10.95
2023-05-14T00:16:12.339Z,11.30
2023-05-14T00:18:39.139Z,9.40
2023-05-14T00:21:05.861Z,8.45
2023-05-14T00:23:32.706Z,9.57
2023-05-14T00:25:59.365Z,7.35
2023-05-14T00:28:26.332Z,6.55
2023-05-14T00:30:53.052Z,6.15
2023-05-14T00:33:19.781Z,7.55
2023-05-14T00:35:46.608Z,6.35
2023-05-14T00:38:17.037Z,7.32
2023-05-14T00:40:45.777Z,8.80
2023-05-14T00:43:12.573Z,6.28
2023-05-14T00:45:39.414Z,8.48
2023-05-14T00:48:06.606Z,7.60
2023-05-14T00:50:34.582Z,7.05
2023-05-14T00:53:01.348Z,6.78
2023-05-14T00:55:30.647Z,13.05
2023-05-14T00:57:58.888Z,7.05
2023-05-14T01:00:25.979Z,12.50
2023-05-14T01:02:53.011Z,6.55
2023-05-14T01:05:20.029Z,7.55
2023-05-14T01:07:54.068Z,7.60
2023-05-14T01:10:27.454Z,10.63
2023-05-14T01:13:20.969Z,10.60
2023-05-14T01:15:48.020Z,11.57
2023-05-14T01:18:18.239Z,11.68
2023-05-14T01:20:45.679Z,8.38
2023-05-14T01:23:12.508Z,7.15
2023-05-14T01:25:39.519Z,8.23
2023-05-14T01:28:32.324Z,5.38
2023-05-14T01:31:11.458Z,8.13
2023-05-14T01:33:41.341Z,14.95
2023-05-14T01:36:08.383Z,6.25
2023-05-14T01:38:36.839Z,8.13
2023-05-14T01:41:05.017Z,8.52
2023-05-14T01:43:32.194Z,7.25
2023-05-14T01:45:59.084Z,7.70
2023-05-14T01:48:25.797Z,9.23
2023-05-14T01:50:52.857Z,10.20
2023-05-14T01:53:19.559Z,8.05
2023-05-14T01:55:46.290Z,8.70
2023-05-14T01:58:12.966Z,10.00
2023-05-14T02:00:39.684Z,11.82
2023-05-14T02:03:06.399Z,6.70
2023-05-14T02:05:33.113Z,8.10
2023-05-14T02:07:59.821Z,9.00
2023-05-14T02:10:26.512Z,10.15
2023-05-14T02:12:53.118Z,10.35
2023-05-14T02:15:19.856Z,9.07
2023-05-14T02:17:46.564Z,7.50
2023-05-14T02:20:13.535Z,9.13
2023-05-14T02:22:42.255Z,9.35
2023-05-14T02:25:09.616Z,9.80
2023-05-14T02:27:36.648Z,8.63
2023-05-14T02:30:04.617Z,14.75
2023-05-14T02:32:31.416Z,11.02
2023-05-14T02:34:58.196Z,9.50
2023-05-14T02:37:24.976Z,7.93
2023-05-14T02:39:52.265Z,14.13
2023-05-14T02:42:19.021Z,14.77
2023-05-14T02:44:46.584Z,8.95
2023-05-14T02:47:13.295Z,9.68
2023-05-14T02:49:40.525Z,9.45
2023-05-14T02:52:07.374Z,9.55
2023-05-14T02:54:34.342Z,9.05
2023-05-14T02:57:01.032Z,7.55
2023-05-14T02:59:27.862Z,11.13
2023-05-14T03:01:55.016Z,7.18
2023-05-14T03:04:22.216Z,8.10
2023-05-14T03:06:49.192Z,13.35
2023-05-14T03:09:16.086Z,8.60
2023-05-14T03:11:42.947Z,7.22
2023-05-14T03:14:09.689Z,7.72
2023-05-14T03:16:36.471Z,7.82
2023-05-14T03:19:03.774Z,11.38
2023-05-14T03:21:31.229Z,8.85
2023-05-14T03:23:58.024Z,9.38
2023-05-14T03:26:24.688Z,10.90
2023-05-14T03:28:52.910Z,12.25
2023-05-14T03:31:19.803Z,10.65
2023-05-14T03:33:46.731Z,16.17
2023-05-14T03:36:13.438Z,9.57
2023-05-14T03:38:40.124Z,14.48
2023-05-14T03:41:06.787Z,12.25
2023-05-14T03:43:33.421Z,24.42
2023-05-14T03:46:00.166Z,11.18
2023-05-14T03:48:27.361Z,9.48
2023-05-14T03:50:54.164Z,10.88
2023-05-14T03:53:20.865Z,10.20
2023-05-14T03:55:47.543Z,14.15
2023-05-14T03:58:14.538Z,7.38
2023-05-14T04:00:42.518Z,14.88
2023-05-14T04:03:11.070Z,10.93
2023-05-14T04:05:37.888Z,9.35
2023-05-14T04:08:04.853Z,9.48
2023-05-14T04:10:32.253Z,8.10
2023-05-14T04:13:00.597Z,8.68
2023-05-14T04:15:32.052Z,10.65
2023-05-14T04:17:58.913Z,8.93
2023-05-14T04:20:25.739Z,11.35
2023-05-14T04:22:53.655Z,9.23
2023-05-14T04:25:20.654Z,8.77
2023-05-14T04:27:47.506Z,10.27
2023-05-14T04:30:14.452Z,10.27
2023-05-14T04:32:41.292Z,10.05
2023-05-14T04:35:10.039Z,11.57
2023-05-14T04:37:36.732Z,11.02
2023-05-14T04:40:05.118Z,10.88
2023-05-14T04:42:31.969Z,9.02
2023-05-14T04:44:58.694Z,21.23
2023-05-14T04:47:26.433Z,8.10
2023-05-14T04:49:53.140Z,8.68
2023-05-14T04:52:19.786Z,10.20
2023-05-14T04:54:46.444Z,10.45
2023-05-14T04:57:13.163Z,21.05
2023-05-14T04:59:39.798Z,9.25
2023-05-14T05:02:06.461Z,9.65
2023-05-14T05:04:33.125Z,10.82
2023-05-14T05:07:00.024Z,8.77
2023-05-14T05:09:27.616Z,13.10
2023-05-14T05:11:54.317Z,13.15
2023-05-14T05:14:21.081Z,8.77
2023-05-14T05:16:47.803Z,7.85
2023-05-14T05:19:14.494Z,7.20
2023-05-14T05:21:41.358Z,9.18
2023-05-14T05:24:08.405Z,7.45
2023-05-14T05:26:36.848Z,7.75
2023-05-14T05:29:04.531Z,6.00
2023-05-14T05:31:31.719Z,6.40
2023-05-14T05:34:02.238Z,5.93
2023-05-14T05:36:28.917Z,7.70
2023-05-14T05:38:56.034Z,8.10
2023-05-14T05:41:22.759Z,7.22
2023-05-14T05:43:50.298Z,10.55
2023-05-14T05:46:17.139Z,6.50
2023-05-14T05:48:43.777Z,9.30
2023-05-14T05:51:11.049Z,5.65
2023-05-14T05:53:37.707Z,4.95
2023-05-14T05:56:04.564Z,8.10
2023-05-14T05:58:31.248Z,11.43
2023-05-14T06:00:58.226Z,9.35
2023-05-14T06:03:25.199Z,8.05
2023-05-14T06:05:52.668Z,6.13
2023-05-14T06:08:19.510Z,10.30
2023-05-14T06:10:47.535Z,4.82
2023-05-14T06:13:14.522Z,4.22
2023-05-14T06:15:41.232Z,5.35
2023-05-14T06:18:07.981Z,4.65
2023-05-14T06:20:34.784Z,5.07
2023-05-14T06:23:01.543Z,4.75
2023-05-14T06:25:28.251Z,9.45
2023-05-14T06:27:54.958Z,8.00
2023-05-14T06:30:21.792Z,4.35
2023-05-14T06:32:48.660Z,4.65
2023-05-14T06:35:15.421Z,5.18
2023-05-14T06:37:42.054Z,6.75
2023-05-14T06:40:09.048Z,6.63
2023-05-14T06:42:35.732Z,4.53
2023-05-14T06:45:05.875Z,5.30
2023-05-14T06:47:33.392Z,4.45
2023-05-14T06:50:02.153Z,4.70
2023-05-14T06:52:28.833Z,5.78
2023-05-14T06:54:55.540Z,3.47
2023-05-14T06:57:22.260Z,3.78
2023-05-14T06:59:48.985Z,3.90
2023-05-14T07:02:15.721Z,3.97
2023-05-14T07:04:42.390Z,3.92
2023-05-14T07:07:10.546Z,5.57
2023-05-14T07:09:37.230Z,5.68
2023-05-14T07:12:04.277Z,3.17
2023-05-14T07:14:30.949Z,3.80
2023-05-14T07:16:57.716Z,3.42
2023-05-14T07:19:24.409Z,3.38
2023-05-14T07:21:51.118Z,7.15
2023-05-14T07:24:17.838Z,5.22
2023-05-14T07:26:44.669Z,3.80
2023-05-14T07:29:11.448Z,3.35
2023-05-14T07:31:38.083Z,5.30
2023-05-14T07:34:04.746Z,3.20
2023-05-14T07:36:32.065Z,3.42
2023-05-14T07:38:58.732Z,3.53
2023-05-14T07:41:25.522Z,3.33
2023-05-14T07:43:52.183Z,3.60
2023-05-14T07:46:18.804Z,3.50
2023-05-14T07:48:45.536Z,4.85
2023-05-14T07:51:12.330Z,2.20
2023-05-14T07:53:39.008Z,2.63
2023-05-14T07:56:06.070Z,2.40
2023-05-14T07:58:32.824Z,3.80
2023-05-14T08:01:02.132Z,3.60
2023-05-14T08:03:28.806Z,3.47
2023-05-14T08:05:56.340Z,2.35
2023-05-14T08:08:23.224Z,3.33
2023-05-14T08:10:50.775Z,2.67
2023-05-14T08:13:17.462Z,2.22
2023-05-14T08:15:44.197Z,2.88
2023-05-14T08:18:10.971Z,2.15
2023-05-14T08:20:37.809Z,4.03
2023-05-14T08:23:04.541Z,3.17
2023-05-14T08:25:31.220Z,1.67
2023-05-14T08:27:59.732Z,2.03
2023-05-14T08:30:26.658Z,2.58
2023-05-14T08:32:53.862Z,5.80
2023-05-14T08:35:20.675Z,2.95
2023-05-14T08:37:47.482Z,3.53
2023-05-14T08:40:14.321Z,2.25
2023-05-14T08:42:41.655Z,3.00
2023-05-14T08:45:25.590Z,2.10
2023-05-14T08:47:52.861Z,5.22
2023-05-14T08:50:22.917Z,2.75
2023-05-14T08:52:50.493Z,2.92
2023-05-14T08:55:17.244Z,2.38
2023-05-14T08:57:44.002Z,1.85
2023-05-14T09:00:13.460Z,3.72
2023-05-14T09:02:41.768Z,2.65
2023-05-14T09:05:12.470Z,5.32
2023-05-14T09:07:39.293Z,1.83
2023-05-14T09:10:06.850Z,4.30
2023-05-14T09:12:33.576Z,2.28
2023-05-14T09:15:00.211Z,2.20
2023-05-14T09:17:28.221Z,2.35
2023-05-14T09:19:55.710Z,2.38
2023-05-14T09:22:22.598Z,2.15
2023-05-14T09:25:10.984Z,5.88
2023-05-14T09:27:38.763Z,2.40
2023-05-14T09:30:13.020Z,1.80
2023-05-14T09:32:44.063Z,2.95
2023-05-14T09:35:17.791Z,4.43
2023-05-14T09:37:47.442Z,3.55
2023-05-14T09:40:14.875Z,3.13
2023-05-14T09:42:44.446Z,2.50
2023-05-14T09:45:11.678Z,2.42
2023-05-14T09:47:39.664Z,3.13
2023-05-14T09:50:07.560Z,4.47
2023-05-14T09:52:35.342Z,4.45
2023-05-14T09:55:02.908Z,2.40
2023-05-14T09:57:29.607Z,2.30
2023-05-14T09:59:56.273Z,1.65
2023-05-14T10:02:33.775Z,2.72
2023-05-14T10:05:03.852Z,2.67
2023-05-14T10:07:36.715Z,1.48
2023-05-14T10:10:06.803Z,3.10
2023-05-14T10:12:36.661Z,1.70
2023-05-14T10:15:08.536Z,2.33
2023-05-14T10:17:37.367Z,2.28
2023-05-14T10:20:05.775Z,6.43
2023-05-14T10:22:35.310Z,2.15
2023-05-14T10:25:03.914Z,1.30
2023-05-14T10:27:30.739Z,1.60
2023-05-14T10:29:57.704Z,1.95
2023-05-14T10:32:26.266Z,2.45
2023-05-14T10:34:53.507Z,1.13
2023-05-14T10:37:25.910Z,1.77
2023-05-14T10:40:06.356Z,1.92
2023-05-14T10:42:40.668Z,2.08
2023-05-14T10:45:09.120Z,1.52
2023-05-14T10:47:38.071Z,5.80
2023-05-14T10:50:10.308Z,2.72
2023-05-14T10:52:37.150Z,1.38
2023-05-14T10:55:08.571Z,3.53
2023-05-14T11:00:07.133Z,1.10
2023-05-14T11:02:38.683Z,1.52
2023-05-14T11:07:36.854Z,1.23
2023-05-14T11:10:14.507Z,1.40
2023-05-14T11:12:43.437Z,1.02
2023-05-14T11:15:15.701Z,1.20
2023-05-14T11:17:43.810Z,1.25
2023-05-14T11:20:13.473Z,2.10
2023-05-14T11:22:41.563Z,1.58
2023-05-14T11:25:09.425Z,1.30
2023-05-14T11:27:38.217Z,0.80
2023-05-14T11:30:05.679Z,0.80
2023-05-14T11:32:32.573Z,1.00
2023-05-14T11:34:59.357Z,1.52
2023-05-14T11:37:26.073Z,1.80
2023-05-14T11:39:54.047Z,1.27
2023-05-14T11:42:22.278Z,2.80
2023-05-14T11:44:51.709Z,2.13
2023-05-14T11:47:20.888Z,2.00
2023-05-14T11:49:48.815Z,1.65
2023-05-14T11:52:16.629Z,1.02
2023-05-14T11:54:44.271Z,1.55
2023-05-14T11:57:13.491Z,2.08
2023-05-14T11:59:41.239Z,2.40
2023-05-14T12:02:16.103Z,3.63
2023-05-14T12:04:43.297Z,2.45
2023-05-14T12:07:15.896Z,2.63
2023-05-14T12:09:49.621Z,1.63
2023-05-14T12:12:26.075Z,1.27
2023-05-14T12:14:52.946Z,0.73
2023-05-14T12:17:22.341Z,1.10
2023-05-14T12:19:52.486Z,1.10
2023-05-14T12:22:20.588Z,1.80
2023-05-14T12:24:54.546Z,1.77
2023-05-14T12:27:36.717Z,2.33
2023-05-14T12:30:20.793Z,1.05
2023-05-14T12:32:51.862Z,1.65
2023-05-14T12:35:20.718Z,2.15
2023-05-14T12:37:47.476Z,2.17
2023-05-14T12:40:14.752Z,1.58
2023-05-14T12:42:42.776Z,1.80
2023-05-14T12:45:09.780Z,3.70
2023-05-14T12:47:37.173Z,1.25
2023-05-14T12:50:04.927Z,2.15
2023-05-14T12:55:02.236Z,2.85
2023-05-14T12:57:30.189Z,1.73
2023-05-14T12:59:57.374Z,2.15
2023-05-14T13:02:24.212Z,2.35
2023-05-14T13:04:50.843Z,2.10
2023-05-14T13:07:17.579Z,1.60
2023-05-14T13:09:44.352Z,1.50
2023-05-14T13:12:11.237Z,1.42
2023-05-14T13:14:37.881Z,1.75
2023-05-14T13:17:05.420Z,1.25
2023-05-14T13:19:32.286Z,1.58
2023-05-14T13:21:59.038Z,1.17
2023-05-14T13:24:25.923Z,1.48
2023-05-14T13:26:52.689Z,1.30
2023-05-14T13:29:19.389Z,1.85
2023-05-14T13:31:46.208Z,1.90
2023-05-14T13:34:13.172Z,1.23
2023-05-14T13:36:40.666Z,4.57
2023-05-14T13:39:07.410Z,6.53
2023-05-14T13:41:37.833Z,1.63
2023-05-14T13:44:04.898Z,2.00
2023-05-14T13:46:31.784Z,2.80
2023-05-14T13:48:58.613Z,2.10
2023-05-14T13:51:25.436Z,1.40
2023-05-14T13:53:52.197Z,1.50
2023-05-14T13:56:19.128Z,2.20
2023-05-14T13:58:45.820Z,1.00
2023-05-14T14:01:12.499Z,1.33
2023-05-14T14:03:39.195Z,1.90
2023-05-14T14:06:06.001Z,1.27
2023-05-14T14:08:32.685Z,1.48
2023-05-14T14:10:59.386Z,2.42
2023-05-14T14:13:26.070Z,2.58
2023-05-14T14:15:52.912Z,2.17
2023-05-14T14:18:19.735Z,1.10
2023-05-14T14:20:46.547Z,3.42
2023-05-14T14:23:13.186Z,5.80
2023-05-14T14:25:40.054Z,3.25
2023-05-14T14:28:06.702Z,1.70
2023-05-14T14:30:33.525Z,3.05
2023-05-14T14:33:01.316Z,2.22
2023-05-14T14:35:28.268Z,3.30
2023-05-14T14:37:55.649Z,1.55
2023-05-14T14:40:23.814Z,3.28
2023-05-14T14:42:50.694Z,2.13
2023-05-14T14:45:17.891Z,4.40
2023-05-14T14:47:46.275Z,2.78
2023-05-14T14:50:14.211Z,2.72
2023-05-14T14:52:45.433Z,2.58
2023-05-14T14:55:12.756Z,5.20
2023-05-14T14:57:39.558Z,1.67
2023-05-14T15:00:06.885Z,3.30
2023-05-14T15:02:33.728Z,3.35
2023-05-14T15:05:00.491Z,3.08
2023-05-14T15:07:27.950Z,2.42
2023-05-14T15:09:54.605Z,2.25
2023-05-14T15:12:21.269Z,2.40
2023-05-14T15:14:47.956Z,2.83
2023-05-14T15:17:14.580Z,6.72
2023-05-14T15:19:41.292Z,4.28
2023-05-14T15:22:08.027Z,2.20
2023-05-14T15:24:34.693Z,3.80
2023-05-14T15:27:02.171Z,3.53
2023-05-14T15:29:28.935Z,3.97
2023-05-14T15:31:56.922Z,9.35
2023-05-14T15:34:23.681Z,2.75
2023-05-14T15:36:50.483Z,3.60
2023-05-14T15:39:17.129Z,2.40
2023-05-14T15:41:45.361Z,4.55
2023-05-14T15:44:12.099Z,2.55
2023-05-14T15:46:38.908Z,3.22
2023-05-14T15:49:06.010Z,1.65
2023-05-14T15:51:32.773Z,1.92
2023-05-14T15:53:59.426Z,2.88
2023-05-14T15:56:26.106Z,3.33
2023-05-14T15:58:52.833Z,5.80
2023-05-14T16:01:19.648Z,2.53
2023-05-14T16:03:46.487Z,3.13
2023-05-14T16:06:13.574Z,3.47
2023-05-14T16:08:40.251Z,1.98
2023-05-14T16:11:07.611Z,3.08
2023-05-14T16:13:35.749Z,2.47
2023-05-14T16:16:02.834Z,1.65
2023-05-14T16:18:29.705Z,2.85
2023-05-14T16:20:56.410Z,1.75
2023-05-14T16:23:23.047Z,2.63
2023-05-14T16:25:49.870Z,2.90
2023-05-14T16:28:16.752Z,1.45
2023-05-14T16:30:43.462Z,4.80
2023-05-14T16:33:10.465Z,2.75
2023-05-14T16:35:37.286Z,3.00
2023-05-14T16:38:04.102Z,3.80
2023-05-14T16:40:30.837Z,3.08
2023-05-14T16:42:58.854Z,4.55
2023-05-14T16:45:26.013Z,4.10
2023-05-14T16:47:52.964Z,2.65
2023-05-14T16:50:19.984Z,7.70
2023-05-14T16:52:46.696Z,2.58
2023-05-14T16:55:13.503Z,3.45
2023-05-14T16:57:40.212Z,3.45
2023-05-14T17:00:07.646Z,3.00
2023-05-14T17:02:34.742Z,5.55
2023-05-14T17:05:02.247Z,4.03
2023-05-14T17:07:29.013Z,3.00
2023-05-14T17:09:55.717Z,2.78
2023-05-14T17:12:23.510Z,3.40
2023-05-14T17:14:51.272Z,2.47
2023-05-14T17:17:18.737Z,4.30
2023-05-14T17:19:46.074Z,3.28
2023-05-14T17:22:13.869Z,5.18
2023-05-14T17:24:40.675Z,2.78
2023-05-14T17:27:07.476Z,4.57
2023-05-14T17:29:34.220Z,5.18
2023-05-14T17:32:01.300Z,2.53
2023-05-14T17:34:28.201Z,4.35
2023-05-14T17:36:55.008Z,2.92
2023-05-14T17:39:46.342Z,7.70
2023-05-14T17:42:13.051Z,3.72
2023-05-14T17:44:40.558Z,2.03
2023-05-14T17:47:08.418Z,2.30
2023-05-14T17:49:35.603Z,5.18
2023-05-14T17:52:03.404Z,2.97
2023-05-14T17:54:30.265Z,2.70
2023-05-14T17:56:57.126Z,6.22
2023-05-14T17:59:24.293Z,3.45
2023-05-14T18:01:51.264Z,4.18
2023-05-14T18:04:17.901Z,2.60
2023-05-14T18:06:45.688Z,2.67
2023-05-14T18:09:12.810Z,3.38
2023-05-14T18:11:39.538Z,2.78
2023-05-14T18:14:06.278Z,2.30
2023-05-14T18:16:33.079Z,3.08
2023-05-14T18:19:00.388Z,2.53
2023-05-14T18:21:28.083Z,5.20
2023-05-14T18:23:54.794Z,2.72
2023-05-14T18:26:24.596Z,2.97
2023-05-14T18:28:51.672Z,1.92
2023-05-14T18:31:18.544Z,2.88
2023-05-14T18:33:45.318Z,4.82
2023-05-14T18:36:12.048Z,2.83
2023-05-14T18:38:38.814Z,3.95
2023-05-14T18:41:05.698Z,2.95
2023-05-14T18:43:32.476Z,3.97
2023-05-14T18:45:59.401Z,2.42
2023-05-14T18:48:26.447Z,2.55
2023-05-14T18:50:53.327Z,2.35
2023-05-14T18:53:20.035Z,2.70
2023-05-14T18:55:46.884Z,4.22
2023-05-14T18:58:14.516Z,2.35
2023-05-14T19:00:41.260Z,2.97
2023-05-14T19:03:08.025Z,4.15
2023-05-14T19:05:34.851Z,4.07
2023-05-14T19:08:01.816Z,2.45
2023-05-14T19:10:29.404Z,2.95
2023-05-14T19:12:56.170Z,3.45
2023-05-14T19:15:23.258Z,4.80
2023-05-14T19:17:50.217Z,3.60
2023-05-14T19:20:18.152Z,2.92
2023-05-14T19:22:44.863Z,3.15
2023-05-14T19:25:11.662Z,3.15
2023-05-14T19:27:38.563Z,3.97
2023-05-14T19:30:06.184Z,3.45
2023-05-14T19:32:33.030Z,7.85
2023-05-14T19:34:59.844Z,3.58
2023-05-14T19:37:26.874Z,4.32
2023-05-14T19:39:53.719Z,3.00
2023-05-14T19:42:20.558Z,3.97
2023-05-14T19:44:47.326Z,2.67
2023-05-14T19:47:14.355Z,6.68
2023-05-14T19:49:41.164Z,3.08
2023-05-14T19:52:07.980Z,4.55
2023-05-14T19:54:34.629Z,3.53
2023-05-14T19:57:02.250Z,6.38
2023-05-14T19:59:29.758Z,8.45
2023-05-14T20:01:56.876Z,5.65
2023-05-14T20:04:26.125Z,4.53
2023-05-14T20:06:53.623Z,8.40
2023-05-14T20:09:20.415Z,5.32
2023-05-14T20:11:47.113Z,4.78
2023-05-14T20:14:14.045Z,3.30
2023-05-14T20:16:41.630Z,4.88
2023-05-14T20:19:08.521Z,4.35
2023-05-14T20:21:35.236Z,4.10
2023-05-14T20:24:03.834Z,6.70
2023-05-14T20:26:30.504Z,5.28
2023-05-14T20:28:57.206Z,4.07
2023-05-14T20:31:23.958Z,4.90
2023-05-14T20:33:50.733Z,6.53
2023-05-14T20:36:17.381Z,9.75
2023-05-14T20:38:44.086Z,9.82
2023-05-14T20:41:10.818Z,6.47
2023-05-14T20:43:37.562Z,4.63
2023-05-14T20:46:05.819Z,6.85
2023-05-14T20:48:35.985Z,4.95
2023-05-14T20:51:04.836Z,4.28
2023-05-14T20:53:32.025Z,5.93
2023-05-14T20:55:59.089Z,7.03
2023-05-14T20:58:25.732Z,5.22
2023-05-14T21:00:52.568Z,4.82
2023-05-14T21:03:19.385Z,4.53
2023-05-14T21:05:46.250Z,5.65
2023-05-14T21:08:12.908Z,5.82
2023-05-14T21:10:39.564Z,6.63
2023-05-14T21:13:07.889Z,7.70
2023-05-14T21:15:34.595Z,5.40
2023-05-14T21:18:02.274Z,5.50
2023-05-14T21:20:34.646Z,5.75
2023-05-14T21:23:02.151Z,4.80
2023-05-14T21:25:28.927Z,6.55
2023-05-14T21:27:55.693Z,4.90
2023-05-14T21:30:22.669Z,5.50
2023-05-14T21:32:49.307Z,5.80
2023-05-14T21:35:16.121Z,6.20
2023-05-14T21:37:43.173Z,4.68
2023-05-14T21:40:12.655Z,6.65
2023-05-14T21:42:40.654Z,4.70
2023-05-14T21:45:07.964Z,3.97
2023-05-14T21:47:34.745Z,4.40
2023-05-14T21:50:02.163Z,4.60
2023-05-14T21:52:28.885Z,8.05
2023-05-14T21:54:56.499Z,5.82
2023-05-14T21:57:23.214Z,6.53
2023-05-14T21:59:49.863Z,6.38
2023-05-14T22:02:16.693Z,4.68
2023-05-14T22:04:43.430Z,9.63
2023-05-14T22:07:10.297Z,4.20
2023-05-14T22:09:36.954Z,5.97
2023-05-14T22:12:03.896Z,7.05
2023-05-14T22:14:30.605Z,7.00
2023-05-14T22:16:57.430Z,7.22
2023-05-14T22:19:24.274Z,4.95
2023-05-14T22:21:51.118Z,5.35
2023-05-14T22:24:17.834Z,5.10
2023-05-14T22:26:44.624Z,5.95
2023-05-14T22:29:11.348Z,5.68
2023-05-14T22:31:38.146Z,8.38
2023-05-14T22:34:04.868Z,5.68
2023-05-14T22:36:31.595Z,9.60
2023-05-14T22:38:58.515Z,6.35
2023-05-14T22:41:26.486Z,7.70
2023-05-14T22:43:53.138Z,7.82
2023-05-14T22:46:21.639Z,6.70
2023-05-14T22:48:49.233Z,7.60
2023-05-14T22:51:17.063Z,8.73
2023-05-14T22:53:44.225Z,6.82
2023-05-14T22:56:11.030Z,6.88
2023-05-14T22:58:37.769Z,7.78
2023-05-14T23:01:04.445Z,8.18
2023-05-14T23:03:31.196Z,7.35
2023-05-14T23:05:57.935Z,7.18
2023-05-14T23:08:24.622Z,8.10
2023-05-14T23:10:51.367Z,6.90
2023-05-14T23:13:19.034Z,7.72
2023-05-14T23:15:45.711Z,7.38
2023-05-14T23:18:12.864Z,6.32
2023-05-14T23:20:39.542Z,6.10
2023-05-14T23:23:06.416Z,6.75
2023-05-14T23:25:33.166Z,10.98
2023-05-14T23:27:59.935Z,6.78
2023-05-14T23:30:27.601Z,7.07
2023-05-14T23:32:54.438Z,10.77
2023-05-14T23:35:21.253Z,6.82
2023-05-14T23:37:49.455Z,6.40
2023-05-14T23:40:16.958Z,8.48
2023-05-14T23:42:44.681Z,7.35
2023-05-14T23:45:13.151Z,8.73
2023-05-14T23:47:40.788Z,6.82
2023-05-14T23:50:07.708Z,6.60
2023-05-14T23:52:34.616Z,7.40
2023-05-14T23:55:02.191Z,12.25
2023-05-14T23:57:28.925Z,8.70
2023-05-14T23:59:55.660Z,8.18
